createdAt,value
2023-03-14T00:02:23.295Z,51.12
2023-03-14T00:04:54.909Z,51.16
2023-03-14T00:07:25.616Z,51.20
2023-03-14T00:09:53.986Z,51.34
2023-03-14T00:12:22.557Z,51.42
2023-03-14T00:14:51.027Z,51.64
2023-03-14T00:17:19.523Z,51.62
2023-03-14T00:19:48.032Z,51.63
2023-03-14T00:22:16.399Z,51.47
2023-03-14T00:24:44.737Z,51.35
2023-03-14T00:27:13.678Z,51.46
2023-03-14T00:29:44.011Z,51.21
2023-03-14T00:32:12.402Z,51.43
2023-03-14T00:34:42.044Z,51.58
2023-03-14T00:37:10.372Z,51.47
2023-03-14T00:39:40.566Z,51.62
2023-03-14T00:42:08.984Z,51.70
2023-03-14T00:44:37.477Z,51.68
2023-03-14T00:47:08.911Z,51.94
2023-03-14T00:49:37.726Z,51.98
2023-03-14T00:52:06.279Z,52.43
2023-03-14T00:54:34.655Z,52.52
2023-03-14T00:57:03.081Z,52.47
2023-03-14T00:59:31.544Z,52.50
2023-03-14T01:01:59.995Z,52.52
2023-03-14T01:04:28.507Z,52.55
2023-03-14T01:06:57.262Z,52.45
2023-03-14T01:09:25.632Z,52.42
2023-03-14T01:11:54.118Z,52.48
2023-03-14T01:14:22.645Z,52.30
2023-03-14T01:16:51.167Z,52.18
2023-03-14T01:19:19.885Z,52.30
2023-03-14T01:21:48.405Z,52.38
2023-03-14T01:24:17.233Z,52.41
2023-03-14T01:26:45.700Z,52.50
2023-03-14T01:29:14.061Z,52.34
2023-03-14T01:31:42.377Z,52.47
2023-03-14T01:34:11.196Z,52.46
2023-03-14T01:36:39.960Z,52.70
2023-03-14T01:39:09.240Z,52.65
2023-03-14T01:41:37.976Z,52.50
2023-03-14T01:44:06.695Z,52.65
2023-03-14T01:46:42.426Z,52.72
2023-03-14T01:49:25.942Z,52.64
2023-03-14T01:52:26.269Z,53.05
2023-03-14T01:55:01.339Z,53.27
2023-03-14T01:58:00.103Z,53.18
2023-03-14T02:00:28.663Z,53.15
2023-03-14T02:03:06.821Z,53.60
2023-03-14T02:05:39.103Z,53.44
2023-03-14T02:08:23.246Z,53.65
2023-03-14T02:10:53.929Z,53.58
2023-03-14T02:13:27.045Z,53.44
2023-03-14T02:16:04.816Z,53.57
2023-03-14T02:18:41.750Z,53.83
2023-03-14T02:22:16.332Z,54.03
2023-03-14T02:25:21.130Z,53.91
2023-03-14T02:27:49.831Z,54.11
2023-03-14T02:30:21.368Z,54.09
2023-03-14T02:32:55.781Z,54.13
2023-03-14T02:35:31.135Z,54.14
2023-03-14T02:38:12.208Z,54.37
2023-03-14T02:40:42.938Z,54.16
2023-03-14T02:43:11.561Z,53.88
2023-03-14T02:45:44.597Z,53.91
2023-03-14T02:48:20.617Z,53.87
2023-03-14T02:50:51.828Z,53.71
2023-03-14T02:53:47.763Z,53.58
2023-03-14T02:56:16.645Z,53.56
2023-03-14T02:58:45.189Z,53.23
2023-03-14T03:01:22.765Z,53.15
2023-03-14T03:03:51.238Z,53.09
2023-03-14T03:06:21.881Z,53.25
2023-03-14T03:08:50.315Z,53.02
2023-03-14T03:11:19.468Z,52.83
2023-03-14T03:13:48.113Z,52.97
2023-03-14T03:16:16.831Z,53.07
2023-03-14T03:18:45.343Z,52.75
2023-03-14T03:21:13.928Z,52.57
2023-03-14T03:23:45.586Z,52.66
2023-03-14T03:26:14.027Z,52.73
2023-03-14T03:28:42.583Z,52.43
2023-03-14T03:31:12.506Z,52.56
2023-03-14T03:33:41.297Z,52.55
2023-03-14T03:36:10.697Z,52.29
2023-03-14T03:38:41.052Z,52.16
2023-03-14T03:41:09.430Z,52.23
2023-03-14T03:43:37.884Z,51.67
2023-03-14T03:46:08.128Z,51.52
2023-03-14T03:48:37.040Z,51.50
2023-03-14T03:51:07.232Z,51.71
2023-03-14T03:53:36.112Z,51.32
2023-03-14T03:56:08.407Z,51.38
2023-03-14T03:58:36.962Z,51.23
2023-03-14T04:01:09.897Z,51.27
2023-03-14T04:03:41.691Z,51.36
2023-03-14T04:06:13.482Z,51.38
2023-03-14T04:08:43.363Z,51.27
2023-03-14T04:11:17.267Z,51.22
2023-03-14T04:14:25.146Z,51.07
2023-03-14T04:17:03.939Z,51.27
2023-03-14T04:19:32.442Z,51.20
2023-03-14T04:22:00.948Z,51.31
2023-03-14T04:24:34.542Z,51.29
2023-03-14T04:27:03.069Z,51.08
2023-03-14T04:29:32.603Z,50.92
2023-03-14T04:32:01.435Z,50.95
2023-03-14T04:34:30.015Z,50.78
2023-03-14T04:36:59.088Z,50.56
2023-03-14T04:39:33.627Z,50.81
2023-03-14T04:42:11.600Z,50.42
2023-03-14T04:44:40.472Z,50.27
2023-03-14T04:47:09.142Z,50.33
2023-03-14T04:49:38.376Z,50.30
2023-03-14T04:52:08.642Z,50.15
2023-03-14T04:54:38.344Z,50.02
2023-03-14T04:57:07.126Z,49.93
2023-03-14T04:59:37.786Z,49.82
2023-03-14T05:02:32.441Z,49.72
2023-03-14T05:05:11.974Z,49.62
2023-03-14T05:08:06.438Z,49.69
2023-03-14T05:10:57.063Z,49.54
2023-03-14T05:13:44.411Z,49.54
2023-03-14T05:16:22.790Z,49.08
2023-03-14T05:18:57.975Z,49.24
2023-03-14T05:21:44.504Z,48.74
2023-03-14T05:24:12.862Z,49.00
2023-03-14T05:26:55.626Z,48.74
2023-03-14T05:29:56.347Z,48.42
2023-03-14T05:32:24.911Z,48.16
2023-03-14T05:35:02.726Z,48.13
2023-03-14T05:37:44.530Z,48.10
2023-03-14T05:40:31.928Z,48.34
2023-03-14T05:43:16.088Z,47.94
2023-03-14T05:45:56.061Z,47.88
2023-03-14T05:48:33.259Z,47.82
2023-03-14T05:51:25.923Z,47.40
2023-03-14T05:53:55.103Z,47.21
2023-03-14T05:56:42.807Z,46.97
2023-03-14T05:59:29.706Z,46.92
2023-03-14T06:02:37.347Z,46.37
2023-03-14T06:05:09.762Z,45.75
2023-03-14T06:07:38.404Z,45.90
2023-03-14T06:10:07.842Z,45.90
2023-03-14T06:12:36.658Z,45.55
2023-03-14T06:15:05.595Z,45.06
2023-03-14T06:17:34.313Z,44.69
2023-03-14T06:20:10.918Z,44.62
2023-03-14T06:22:40.729Z,44.34
2023-03-14T06:25:10.510Z,44.05
2023-03-14T06:27:38.973Z,44.03
2023-03-14T06:30:08.386Z,43.94
2023-03-14T06:32:37.058Z,43.72
2023-03-14T06:35:09.585Z,43.73
2023-03-14T06:37:40.237Z,43.30
2023-03-14T06:40:10.730Z,43.18
2023-03-14T06:42:50.395Z,42.83
2023-03-14T06:45:19.288Z,42.54
2023-03-14T06:47:48.216Z,42.28
2023-03-14T06:50:17.716Z,42.11
2023-03-14T06:52:50.134Z,42.35
2023-03-14T06:55:22.889Z,42.02
2023-03-14T06:57:51.681Z,42.20
2023-03-14T07:00:20.649Z,41.75
2023-03-14T07:02:49.355Z,41.74
2023-03-14T07:05:40.156Z,41.95
2023-03-14T07:08:09.673Z,41.60
2023-03-14T07:10:38.293Z,41.75
2023-03-14T07:13:08.194Z,41.57
2023-03-14T07:15:39.954Z,41.47
2023-03-14T07:18:11.361Z,40.72
2023-03-14T07:20:40.020Z,41.27
2023-03-14T07:23:09.022Z,41.17
2023-03-14T07:25:42.299Z,41.43
2023-03-14T07:28:10.968Z,41.49
2023-03-14T07:30:41.086Z,41.19
2023-03-14T07:33:15.652Z,41.55
2023-03-14T07:35:44.709Z,41.18
2023-03-14T07:38:13.315Z,41.06
2023-03-14T07:40:50.349Z,40.77
2023-03-14T07:43:18.855Z,40.30
2023-03-14T07:45:51.343Z,40.11
2023-03-14T07:48:20.251Z,40.08
2023-03-14T07:50:52.584Z,40.22
2023-03-14T07:53:22.141Z,39.95
2023-03-14T07:55:59.756Z,39.97
2023-03-14T07:58:28.885Z,39.65
2023-03-14T08:00:59.846Z,39.71
2023-03-14T08:03:28.618Z,39.41
2023-03-14T08:05:57.367Z,39.13
2023-03-14T08:08:25.853Z,39.09
2023-03-14T08:10:54.498Z,38.19
2023-03-14T08:13:24.957Z,37.72
2023-03-14T08:15:54.027Z,37.86
2023-03-14T08:18:23.002Z,36.92
2023-03-14T08:20:51.842Z,36.88
2023-03-14T08:23:20.376Z,36.65
2023-03-14T08:25:52.879Z,35.91
2023-03-14T08:28:21.338Z,35.08
2023-03-14T08:30:49.801Z,34.96
2023-03-14T08:33:19.450Z,34.04
2023-03-14T08:35:48.831Z,33.28
2023-03-14T08:38:18.144Z,32.92
2023-03-14T08:40:46.885Z,32.91
2023-03-14T08:43:15.400Z,32.53
2023-03-14T08:45:44.693Z,32.52
2023-03-14T08:48:16.262Z,33.20
2023-03-14T08:50:45.042Z,32.73
2023-03-14T08:53:13.488Z,32.30
2023-03-14T08:55:42.019Z,31.70
2023-03-14T08:58:10.394Z,31.12
2023-03-14T09:00:39.930Z,31.12
2023-03-14T09:03:08.678Z,31.72
2023-03-14T09:05:38.694Z,31.17
2023-03-14T09:08:07.404Z,30.47
2023-03-14T09:10:36.414Z,31.09
2023-03-14T09:13:05.360Z,30.94
2023-03-14T09:15:34.294Z,30.83
2023-03-14T09:18:03.249Z,30.66
2023-03-14T09:20:31.696Z,30.68
2023-03-14T09:23:00.370Z,29.96
2023-03-14T09:25:33.827Z,30.28
2023-03-14T09:28:02.539Z,30.31
2023-03-14T09:30:31.129Z,29.52
2023-03-14T09:33:00.531Z,29.30
2023-03-14T09:35:29.023Z,29.03
2023-03-14T09:37:57.597Z,29.29
2023-03-14T09:40:30.329Z,28.51
2023-03-14T09:43:00.049Z,28.82
2023-03-14T09:45:37.714Z,28.66
2023-03-14T09:48:06.991Z,28.06
2023-03-14T09:50:43.432Z,27.11
2023-03-14T09:53:18.927Z,26.58
2023-03-14T09:55:49.854Z,26.89
2023-03-14T09:58:21.205Z,26.29
2023-03-14T10:00:51.914Z,26.06
2023-03-14T10:03:25.434Z,25.90
2023-03-14T10:05:54.822Z,25.19
2023-03-14T10:08:23.555Z,25.16
2023-03-14T10:10:52.091Z,24.52
2023-03-14T10:13:23.277Z,24.50
2023-03-14T10:15:56.151Z,24.80
2023-03-14T10:18:26.901Z,24.85
2023-03-14T10:21:28.175Z,24.33
2023-03-14T10:24:09.042Z,24.88
2023-03-14T10:26:38.161Z,24.64
2023-03-14T10:29:12.561Z,24.31
2023-03-14T10:32:11.138Z,24.19
2023-03-14T10:34:46.838Z,24.28
2023-03-14T10:37:28.491Z,24.22
2023-03-14T10:40:07.053Z,23.39
2023-03-14T10:42:48.430Z,23.04
2023-03-14T10:45:52.595Z,23.64
2023-03-14T10:48:32.327Z,24.13
2023-03-14T10:51:08.354Z,22.92
2023-03-14T10:53:47.722Z,22.53
2023-03-14T10:56:19.602Z,22.56
2023-03-14T10:58:53.087Z,22.87
2023-03-14T11:01:42.320Z,23.10
2023-03-14T11:04:41.678Z,22.92
2023-03-14T11:07:44.021Z,23.15
2023-03-14T11:10:44.566Z,22.17
2023-03-14T11:13:16.464Z,22.39
2023-03-14T11:16:01.530Z,22.29
2023-03-14T11:18:32.999Z,21.87
2023-03-14T11:21:10.375Z,21.96
2023-03-14T11:23:54.021Z,20.90
2023-03-14T11:26:31.597Z,20.97
2023-03-14T11:29:10.193Z,20.71
2023-03-14T11:31:42.808Z,20.89
2023-03-14T11:34:19.121Z,20.90
2023-03-14T11:36:54.273Z,19.96
2023-03-14T11:39:25.633Z,19.62
2023-03-14T11:41:55.677Z,19.43
2023-03-14T11:44:38.325Z,18.96
2023-03-14T11:47:21.957Z,18.88
2023-03-14T11:50:00.114Z,18.89
2023-03-14T11:52:54.191Z,19.04
2023-03-14T11:55:40.505Z,18.92
2023-03-14T11:58:45.589Z,18.62
2023-03-14T12:01:16.461Z,18.22
2023-03-14T12:03:59.350Z,18.32
2023-03-14T12:06:49.667Z,17.88
2023-03-14T12:09:20.166Z,18.16
2023-03-14T12:11:57.816Z,18.32
2023-03-14T12:14:26.667Z,18.23
2023-03-14T12:17:04.863Z,18.78
2023-03-14T12:19:41.257Z,18.76
2023-03-14T12:22:15.517Z,18.23
2023-03-14T12:24:52.731Z,18.60
2023-03-14T12:27:56.724Z,18.42
2023-03-14T12:30:43.405Z,18.48
2023-03-14T12:33:13.414Z,18.92
2023-03-14T12:35:43.368Z,19.45
2023-03-14T12:38:18.206Z,19.22
2023-03-14T12:41:38.221Z,19.36
2023-03-14T12:44:31.675Z,19.70
2023-03-14T12:47:19.611Z,20.11
2023-03-14T12:49:56.488Z,20.13
2023-03-14T12:52:45.107Z,20.07
2023-03-14T12:55:46.359Z,20.48
2023-03-14T12:58:36.474Z,20.63
2023-03-14T13:01:07.240Z,20.91
2023-03-14T13:03:47.784Z,21.06
2023-03-14T13:06:55.899Z,21.31
2023-03-14T13:09:33.788Z,21.11
2023-03-14T13:12:14.450Z,21.39
2023-03-14T13:14:45.533Z,21.29
2023-03-14T13:17:36.044Z,21.68
2023-03-14T13:20:16.640Z,21.45
2023-03-14T13:22:50.164Z,21.19
2023-03-14T13:25:19.698Z,21.12
2023-03-14T13:27:48.395Z,21.42
2023-03-14T13:30:23.737Z,21.38
2023-03-14T13:32:53.539Z,21.07
2023-03-14T13:35:23.396Z,20.67
2023-03-14T13:38:10.980Z,20.67
2023-03-14T13:40:40.871Z,20.57
2023-03-14T13:43:16.794Z,20.54
2023-03-14T13:45:52.995Z,20.48
2023-03-14T13:48:22.446Z,20.86
2023-03-14T13:50:54.288Z,20.77
2023-03-14T13:53:23.448Z,20.99
2023-03-14T13:55:52.557Z,20.55
2023-03-14T13:58:29.359Z,20.54
2023-03-14T14:01:06.662Z,20.26
2023-03-14T14:03:39.297Z,20.69
2023-03-14T14:06:18.787Z,20.66
2023-03-14T14:08:47.675Z,21.21
2023-03-14T14:11:28.060Z,21.57
2023-03-14T14:14:01.790Z,21.66
2023-03-14T14:16:31.521Z,21.73
2023-03-14T14:19:01.303Z,21.99
2023-03-14T14:21:30.547Z,22.24
2023-03-14T14:24:00.180Z,22.34
2023-03-14T14:26:28.615Z,22.23
2023-03-14T14:29:05.102Z,22.37
2023-03-14T14:31:33.903Z,22.76
2023-03-14T14:34:04.692Z,23.03
2023-03-14T14:36:40.580Z,23.11
2023-03-14T14:39:24.514Z,23.26
2023-03-14T14:41:55.188Z,23.18
2023-03-14T14:44:35.970Z,23.51
2023-03-14T14:47:05.347Z,23.28
2023-03-14T14:49:34.789Z,23.85
2023-03-14T14:52:07.574Z,23.95
2023-03-14T14:54:47.133Z,23.90
2023-03-14T14:57:21.502Z,23.93
2023-03-14T14:59:53.271Z,24.14
2023-03-14T15:02:39.093Z,24.17
2023-03-14T15:05:14.042Z,24.08
2023-03-14T15:07:42.442Z,24.28
2023-03-14T15:10:17.590Z,24.39
2023-03-14T15:12:46.366Z,24.88
2023-03-14T15:15:15.067Z,24.86
2023-03-14T15:17:43.577Z,24.60
2023-03-14T15:20:16.562Z,24.87
2023-03-14T15:22:45.247Z,24.58
2023-03-14T15:25:34.868Z,24.69
2023-03-14T15:28:02.215Z,24.47
2023-03-14T15:30:30.754Z,24.92
2023-03-14T15:32:59.279Z,25.10
2023-03-14T15:35:27.791Z,24.91
2023-03-14T15:37:56.297Z,24.87
2023-03-14T15:40:25.726Z,25.10
2023-03-14T15:42:54.186Z,25.24
2023-03-14T15:45:22.516Z,25.15
2023-03-14T15:47:50.919Z,25.08
2023-03-14T15:50:20.352Z,25.41
2023-03-14T15:52:49.384Z,25.48
2023-03-14T15:55:17.944Z,25.68
2023-03-14T15:57:47.148Z,25.79
2023-03-14T16:00:19.644Z,26.04
2023-03-14T16:02:48.158Z,26.05
2023-03-14T16:05:16.956Z,26.31
2023-03-14T16:07:45.901Z,26.60
2023-03-14T16:10:17.284Z,26.72
2023-03-14T16:12:45.813Z,26.90
2023-03-14T16:15:14.229Z,27.18
2023-03-14T16:17:44.485Z,27.17
2023-03-14T16:20:13.311Z,27.42
2023-03-14T16:22:41.875Z,27.63
2023-03-14T16:25:11.140Z,27.70
2023-03-14T16:27:40.014Z,27.64
2023-03-14T16:30:10.560Z,27.70
2023-03-14T16:32:39.284Z,27.72
2023-03-14T16:35:08.707Z,27.93
2023-03-14T16:37:37.081Z,27.95
2023-03-14T16:40:12.602Z,27.83
2023-03-14T16:45:30.343Z,28.14
2023-03-14T16:47:58.700Z,28.19
2023-03-14T16:50:27.182Z,28.21
2023-03-14T16:52:55.684Z,28.11
2023-03-14T16:55:24.138Z,28.18
2023-03-14T16:57:52.686Z,28.08
2023-03-14T17:00:22.513Z,28.29
2023-03-14T17:02:51.098Z,28.12
2023-03-14T17:05:21.156Z,27.99
2023-03-14T17:07:50.771Z,28.14
2023-03-14T17:10:19.281Z,27.98
2023-03-14T17:12:47.662Z,27.89
2023-03-14T17:15:16.095Z,28.01
2023-03-14T17:17:44.536Z,28.06
2023-03-14T17:20:13.126Z,28.04
2023-03-14T17:22:41.588Z,27.99
2023-03-14T17:25:10.412Z,28.17
2023-03-14T17:27:39.206Z,28.29
2023-03-14T17:30:08.301Z,28.43
2023-03-14T17:32:37.228Z,28.59
2023-03-14T17:35:06.297Z,28.67
2023-03-14T17:37:34.781Z,28.94
2023-03-14T17:40:04.525Z,29.09
2023-03-14T17:42:33.053Z,29.22
2023-03-14T17:45:01.897Z,29.51
2023-03-14T17:47:30.360Z,29.72
2023-03-14T17:49:58.705Z,29.70
2023-03-14T17:52:27.256Z,29.80
2023-03-14T17:54:55.661Z,29.81
2023-03-14T17:57:24.618Z,29.95
2023-03-14T17:59:56.373Z,29.76
2023-03-14T18:02:25.941Z,29.87
2023-03-14T18:04:54.926Z,29.88
2023-03-14T18:07:23.390Z,29.83
2023-03-14T18:09:52.200Z,29.65
2023-03-14T18:12:20.974Z,29.54
2023-03-14T18:14:49.569Z,29.75
2023-03-14T18:17:18.012Z,29.44
2023-03-14T18:19:46.821Z,29.33
2023-03-14T18:22:16.298Z,29.27
2023-03-14T18:24:45.029Z,29.36
2023-03-14T18:27:15.941Z,29.21
2023-03-14T18:29:44.852Z,29.34
2023-03-14T18:32:13.585Z,29.34
2023-03-14T18:34:43.204Z,29.19
2023-03-14T18:37:12.112Z,29.39
2023-03-14T18:39:40.629Z,29.48
2023-03-14T18:42:09.085Z,29.68
2023-03-14T18:44:37.769Z,29.82
2023-03-14T18:47:06.628Z,29.99
2023-03-14T18:49:36.162Z,29.86
2023-03-14T18:52:04.886Z,29.78
2023-03-14T18:54:33.933Z,29.94
2023-03-14T18:57:02.433Z,30.03
2023-03-14T18:59:31.738Z,29.92
2023-03-14T19:02:00.702Z,30.10
2023-03-14T19:04:29.595Z,30.04
2023-03-14T19:06:58.657Z,29.87
2023-03-14T19:09:27.606Z,29.72
2023-03-14T19:11:56.132Z,29.86
2023-03-14T19:14:25.013Z,29.83
2023-03-14T19:16:54.066Z,29.58
2023-03-14T19:19:22.576Z,29.86
2023-03-14T19:21:51.469Z,29.89
2023-03-14T19:24:20.605Z,29.84
2023-03-14T19:26:51.171Z,29.90
2023-03-14T19:29:20.029Z,29.54
2023-03-14T19:31:48.872Z,29.50
2023-03-14T19:34:17.520Z,29.64
2023-03-14T19:36:49.400Z,29.62
2023-03-14T19:39:17.855Z,29.78
2023-03-14T19:41:46.381Z,29.62
2023-03-14T19:44:14.956Z,29.48
2023-03-14T19:46:43.422Z,29.26
2023-03-14T19:49:11.883Z,29.42
2023-03-14T19:51:41.672Z,29.33
2023-03-14T19:54:10.047Z,29.10
2023-03-14T19:56:38.795Z,29.23
2023-03-14T19:59:08.017Z,29.10
2023-03-14T20:01:36.907Z,28.96
2023-03-14T20:04:05.399Z,28.80
2023-03-14T20:06:35.840Z,28.83
2023-03-14T20:09:06.113Z,28.80
2023-03-14T20:11:40.514Z,28.83
2023-03-14T20:14:09.454Z,28.88
2023-03-14T20:16:38.237Z,28.76
2023-03-14T20:19:11.852Z,28.53
2023-03-14T20:21:40.248Z,28.93
2023-03-14T20:24:09.693Z,28.68
2023-03-14T20:26:38.830Z,28.54
2023-03-14T20:29:07.616Z,28.49
2023-03-14T20:31:38.184Z,28.81
2023-03-14T20:34:06.730Z,28.66
2023-03-14T20:36:35.495Z,29.01
2023-03-14T20:39:04.777Z,28.62
2023-03-14T20:41:33.319Z,28.95
2023-03-14T20:44:01.936Z,28.95
2023-03-14T20:46:30.514Z,29.01
2023-03-14T20:49:03.561Z,28.80
2023-03-14T20:51:35.732Z,29.07
2023-03-14T20:54:04.304Z,28.80
2023-03-14T20:56:33.024Z,29.02
2023-03-14T20:59:01.424Z,29.22
2023-03-14T21:01:29.948Z,28.81
2023-03-14T21:04:01.540Z,28.92
2023-03-14T21:06:30.164Z,29.06
2023-03-14T21:08:59.379Z,28.73
2023-03-14T21:11:27.766Z,28.93
2023-03-14T21:13:56.287Z,28.85
2023-03-14T21:16:24.993Z,28.97
2023-03-14T21:18:53.473Z,28.94
2023-03-14T21:21:22.381Z,29.00
2023-03-14T21:23:54.507Z,28.79
2023-03-14T21:26:23.398Z,28.72
2023-03-14T21:28:51.916Z,28.66
2023-03-14T21:31:20.304Z,28.63
2023-03-14T21:33:49.212Z,28.37
2023-03-14T21:36:18.977Z,28.41
2023-03-14T21:38:47.686Z,28.32
2023-03-14T21:41:16.101Z,28.75
2023-03-14T21:43:46.014Z,28.31
2023-03-14T21:46:14.750Z,28.08
2023-03-14T21:48:44.246Z,27.83
2023-03-14T21:51:13.963Z,28.04
2023-03-14T21:53:42.348Z,27.80
2023-03-14T21:56:10.657Z,27.82
2023-03-14T21:58:39.137Z,27.46
2023-03-14T22:01:07.772Z,27.89
2023-03-14T22:03:36.245Z,27.77
2023-03-14T22:06:05.092Z,27.79
2023-03-14T22:08:33.609Z,27.61
2023-03-14T22:11:02.217Z,27.40
2023-03-14T22:13:30.670Z,27.40
2023-03-14T22:15:59.071Z,27.22
2023-03-14T22:18:28.048Z,26.96
2023-03-14T22:20:56.443Z,26.74
2023-03-14T22:23:24.827Z,26.41
2023-03-14T22:25:53.249Z,26.24
2023-03-14T22:28:21.646Z,26.03
2023-03-14T22:30:51.994Z,26.30
2023-03-14T22:33:20.769Z,25.50
2023-03-14T22:35:50.286Z,25.33
2023-03-14T22:38:19.230Z,25.34
2023-03-14T22:40:48.095Z,25.21
2023-03-14T22:43:16.830Z,25.52
2023-03-14T22:45:45.632Z,26.13
2023-03-14T22:48:15.452Z,27.49
2023-03-14T22:50:43.953Z,28.67
2023-03-14T22:53:12.609Z,28.51
2023-03-14T22:55:40.999Z,29.63
2023-03-14T22:58:10.078Z,30.72
2023-03-14T23:00:38.562Z,30.22
2023-03-14T23:03:06.998Z,30.78
2023-03-14T23:05:35.624Z,31.98
2023-03-14T23:08:04.074Z,32.34
2023-03-14T23:10:33.288Z,32.48
2023-03-14T23:13:01.783Z,32.70
2023-03-14T23:15:30.218Z,32.39
2023-03-14T23:17:58.647Z,32.54
2023-03-14T23:20:28.563Z,32.82
2023-03-14T23:22:57.063Z,33.75
2023-03-14T23:25:25.562Z,33.93
2023-03-14T23:27:54.457Z,32.60
2023-03-14T23:30:23.072Z,34.01
2023-03-14T23:32:51.565Z,34.69
2023-03-14T23:35:20.187Z,34.78
2023-03-14T23:37:50.035Z,35.37
2023-03-14T23:40:18.929Z,35.47
2023-03-14T23:42:49.098Z,34.91
2023-03-14T23:45:17.686Z,35.75
2023-03-14T23:47:46.296Z,35.94
2023-03-14T23:50:15.151Z,35.65
2023-03-14T23:52:43.640Z,36.14
2023-03-14T23:55:12.160Z,36.22
2023-03-14T23:57:40.499Z,36.09
